createdAt,value
2022-10-22T00:01:04.934Z,93976.00
2022-10-22T00:03:34.217Z,93969.00
2022-10-22T00:06:03.724Z,93965.00
2022-10-22T00:08:30.795Z,93964.00
2022-10-22T00:10:58.039Z,93950.00
2022-10-22T00:13:30.058Z,93920.00
2022-10-22T00:15:56.936Z,93912.00
2022-10-22T00:18:23.825Z,93911.00
2022-10-22T00:20:57.686Z,93908.00
2022-10-22T00:23:26.658Z,93903.00
2022-10-22T00:25:54.509Z,93910.00
2022-10-22T00:28:21.624Z,93932.00
2022-10-22T00:30:48.522Z,93948.00
2022-10-22T00:33:15.373Z,93944.00
2022-10-22T00:35:43.941Z,93959.00
2022-10-22T00:38:18.118Z,93973.00
2022-10-22T00:40:47.674Z,93977.00
2022-10-22T00:43:18.157Z,93991.00
2022-10-22T00:45:45.565Z,93990.00
2022-10-22T00:48:19.443Z,93988.00
2022-10-22T00:50:51.026Z,93993.00
2022-10-22T00:53:23.308Z,93984.00
2022-10-22T00:55:52.792Z,93983.00
2022-10-22T00:58:23.445Z,93983.00
2022-10-22T01:00:53.312Z,93978.00
2022-10-22T01:03:21.285Z,93999.00
2022-10-22T01:06:01.245Z,94012.00
2022-10-22T01:08:48.815Z,94029.00
2022-10-22T01:11:35.292Z,94024.00
2022-10-22T01:14:08.193Z,94029.00
2022-10-22T01:16:56.914Z,94033.00
2022-10-22T01:20:11.447Z,94043.00
2022-10-22T01:22:40.657Z,94053.00
2022-10-22T01:25:31.759Z,94041.00
2022-10-22T01:28:21.252Z,94026.00
2022-10-22T01:30:51.715Z,94029.00
2022-10-22T01:33:26.802Z,94024.00
2022-10-22T01:35:53.934Z,93999.00
2022-10-22T01:38:24.608Z,94008.00
2022-10-22T01:40:54.086Z,94013.00
2022-10-22T01:43:23.444Z,93996.00
2022-10-22T01:46:00.174Z,93992.00
2022-10-22T01:48:54.216Z,93980.00
2022-10-22T01:51:52.128Z,93995.00
2022-10-22T01:54:18.945Z,93979.00
2022-10-22T01:57:06.998Z,93974.00
2022-10-22T01:59:48.102Z,93979.00
2022-10-22T02:02:45.418Z,93959.00
2022-10-22T02:05:25.404Z,93966.00
2022-10-22T02:08:14.234Z,93963.00
2022-10-22T02:10:47.249Z,93969.00
2022-10-22T02:13:24.051Z,93975.00
2022-10-22T02:15:53.042Z,93967.00
2022-10-22T02:18:28.258Z,93972.00
2022-10-22T02:21:02.087Z,93978.00
2022-10-22T02:23:33.810Z,93984.00
2022-10-22T02:26:15.368Z,93997.00
2022-10-22T02:29:10.913Z,94006.00
2022-10-22T02:31:42.366Z,94010.00
2022-10-22T02:34:15.717Z,94014.00
2022-10-22T02:36:52.242Z,94021.00
2022-10-22T02:39:21.855Z,94027.00
2022-10-22T02:41:51.508Z,94030.00
2022-10-22T02:44:24.352Z,94030.00
2022-10-22T02:46:52.002Z,94035.00
2022-10-22T02:49:21.063Z,94034.00
2022-10-22T02:51:47.904Z,94033.00
2022-10-22T02:54:14.869Z,94040.00
2022-10-22T02:56:41.720Z,94026.00
2022-10-22T02:59:08.641Z,94053.00
2022-10-22T03:01:38.053Z,94056.00
2022-10-22T03:04:05.463Z,94053.00
2022-10-22T03:06:32.273Z,94052.00
2022-10-22T03:09:02.210Z,94048.00
2022-10-22T03:11:29.100Z,94053.00
2022-10-22T03:13:55.930Z,94063.00
2022-10-22T03:16:22.920Z,94056.00
2022-10-22T03:18:51.972Z,94055.00
2022-10-22T03:21:34.044Z,94056.00
2022-10-22T03:24:08.409Z,94068.00
2022-10-22T03:26:37.151Z,94045.00
2022-10-22T03:29:04.624Z,94057.00
2022-10-22T03:31:31.682Z,94053.00
2022-10-22T03:34:00.823Z,94051.00
2022-10-22T03:36:27.702Z,94052.00
2022-10-22T03:38:56.911Z,94048.00
2022-10-22T03:41:23.753Z,94049.00
2022-10-22T03:43:52.989Z,94044.00
2022-10-22T03:46:22.719Z,94042.00
2022-10-22T03:48:49.525Z,94041.00
2022-10-22T03:51:16.335Z,94035.00
2022-10-22T03:53:43.199Z,94033.00
2022-10-22T03:56:11.652Z,94034.00
2022-10-22T03:58:40.908Z,94031.00
2022-10-22T04:01:16.884Z,94038.00
2022-10-22T04:03:43.751Z,94038.00
2022-10-22T04:06:13.632Z,94029.00
2022-10-22T04:08:43.369Z,94023.00
2022-10-22T04:11:16.173Z,94017.00
2022-10-22T04:13:44.132Z,94020.00
2022-10-22T04:16:19.345Z,94028.00
2022-10-22T04:18:50.526Z,94036.00
2022-10-22T04:21:22.350Z,94038.00
2022-10-22T04:23:53.461Z,94046.00
2022-10-22T04:26:23.376Z,94045.00
2022-10-22T04:28:53.873Z,94047.00
2022-10-22T04:31:24.773Z,94043.00
2022-10-22T04:33:57.573Z,94046.00
2022-10-22T04:36:25.317Z,94050.00
2022-10-22T04:39:00.926Z,94040.00
2022-10-22T04:41:35.580Z,94040.00
2022-10-22T04:44:03.681Z,94045.00
2022-10-22T04:46:33.286Z,94031.00
2022-10-22T04:49:00.709Z,94038.00
2022-10-22T04:51:28.201Z,94034.00
2022-10-22T04:53:55.132Z,94049.00
2022-10-22T04:56:26.169Z,94046.00
2022-10-22T04:58:59.162Z,94045.00
2022-10-22T05:01:39.882Z,94051.00
2022-10-22T05:04:16.165Z,94045.00
2022-10-22T05:06:43.544Z,94051.00
2022-10-22T05:09:20.201Z,94042.00
2022-10-22T05:11:52.358Z,94053.00
2022-10-22T05:14:25.337Z,94055.00
2022-10-22T05:16:55.314Z,94057.00
2022-10-22T05:19:30.805Z,94053.00
2022-10-22T05:22:01.340Z,94048.00
2022-10-22T05:24:30.732Z,94050.00
2022-10-22T05:26:59.684Z,94053.00
2022-10-22T05:29:29.638Z,94045.00
2022-10-22T05:31:56.717Z,94040.00
2022-10-22T05:34:23.723Z,94056.00
2022-10-22T05:36:50.581Z,94055.00
2022-10-22T05:39:17.437Z,94058.00
2022-10-22T05:41:44.296Z,94071.00
2022-10-22T05:44:13.859Z,94069.00
2022-10-22T05:46:41.070Z,94078.00
2022-10-22T05:49:08.098Z,94084.00
2022-10-22T05:51:37.450Z,94088.00
2022-10-22T05:54:07.609Z,94081.00
2022-10-22T05:56:38.055Z,94090.00
2022-10-22T05:59:05.094Z,94084.00
2022-10-22T06:01:36.338Z,94090.00
2022-10-22T06:04:07.374Z,94092.00
2022-10-22T06:06:50.605Z,94105.00
2022-10-22T06:12:13.684Z,94114.00
2022-10-22T06:14:40.642Z,94114.00
2022-10-22T06:17:10.023Z,94120.00
2022-10-22T06:19:36.849Z,94108.00
2022-10-22T06:22:07.293Z,94127.00
2022-10-22T06:24:34.109Z,94124.00
2022-10-22T06:27:01.023Z,94122.00
2022-10-22T06:29:27.977Z,94124.00
2022-10-22T06:31:54.852Z,94141.00
2022-10-22T06:34:21.735Z,94143.00
2022-10-22T06:36:48.710Z,94153.00
2022-10-22T06:39:20.754Z,94149.00
2022-10-22T06:41:49.789Z,94152.00
2022-10-22T06:44:18.868Z,94159.00
2022-10-22T06:46:45.762Z,94153.00
2022-10-22T06:49:17.230Z,94142.00
2022-10-22T06:51:46.198Z,94144.00
2022-10-22T06:54:15.134Z,94149.00
2022-10-22T06:56:42.133Z,94143.00
2022-10-22T06:59:09.184Z,94149.00
2022-10-22T07:01:36.286Z,94153.00
2022-10-22T07:04:04.462Z,94159.00
2022-10-22T07:06:35.610Z,94161.00
2022-10-22T07:09:02.815Z,94161.00
2022-10-22T07:11:39.396Z,94168.00
2022-10-22T07:14:06.334Z,94180.00
2022-10-22T07:16:33.251Z,94173.00
2022-10-22T07:19:05.965Z,94173.00
2022-10-22T07:21:33.047Z,94196.00
2022-10-22T07:28:06.623Z,94187.00
2022-10-22T07:30:59.946Z,94198.00
2022-10-22T07:36:29.548Z,94191.00
2022-10-22T07:39:08.285Z,94202.00
2022-10-22T07:41:58.895Z,94199.00
2022-10-22T07:44:25.992Z,94213.00
2022-10-22T07:46:56.113Z,94201.00
2022-10-22T07:49:26.187Z,94198.00
2022-10-22T07:52:12.629Z,94199.00
2022-10-22T07:55:13.501Z,94198.00
2022-10-22T07:57:54.018Z,94200.00
2022-10-22T08:00:31.261Z,94196.00
2022-10-22T08:02:58.405Z,94210.00
2022-10-22T08:05:27.762Z,94209.00
2022-10-22T08:07:57.161Z,94214.00
2022-10-22T08:10:26.542Z,94209.00
2022-10-22T08:13:05.519Z,94209.00
2022-10-22T08:15:57.279Z,94221.00
2022-10-22T08:18:24.947Z,94215.00
2022-10-22T08:20:54.673Z,94218.00
2022-10-22T08:23:28.314Z,94222.00
2022-10-22T08:25:58.462Z,94223.00
2022-10-22T08:28:29.589Z,94211.00
2022-10-22T08:30:56.704Z,94223.00
2022-10-22T08:33:28.793Z,94217.00
2022-10-22T08:35:59.247Z,94232.00
2022-10-22T08:38:26.423Z,94233.00
2022-10-22T08:41:03.885Z,94228.00
2022-10-22T08:43:55.320Z,94228.00
2022-10-22T08:47:37.605Z,94231.00
2022-10-22T08:50:10.961Z,94224.00
2022-10-22T08:52:42.663Z,94231.00
2022-10-22T08:55:17.017Z,94228.00
2022-10-22T08:58:03.135Z,94218.00
2022-10-22T09:00:49.506Z,94215.00
2022-10-22T09:03:56.527Z,94233.00
2022-10-22T09:06:50.743Z,94223.00
2022-10-22T09:09:28.909Z,94242.00
2022-10-22T09:12:00.793Z,94239.00
2022-10-22T09:14:28.287Z,94220.00
2022-10-22T09:17:40.049Z,94239.00
2022-10-22T09:20:26.827Z,94233.00
2022-10-22T09:23:34.291Z,94242.00
2022-10-22T09:26:19.782Z,94240.00
2022-10-22T09:29:02.049Z,94239.00
2022-10-22T09:31:42.520Z,94241.00
2022-10-22T09:34:23.544Z,94226.00
2022-10-22T09:37:22.156Z,94239.00
2022-10-22T09:39:52.769Z,94243.00
2022-10-22T09:42:25.915Z,94239.00
2022-10-22T09:45:04.396Z,94235.00
2022-10-22T09:47:43.298Z,94237.00
2022-10-22T09:50:38.834Z,94234.00
2022-10-22T09:53:29.069Z,94245.00
2022-10-22T09:55:59.763Z,94235.00
2022-10-22T09:58:28.036Z,94241.00
2022-10-22T10:00:59.611Z,94239.00
2022-10-22T10:03:48.214Z,94237.00
2022-10-22T10:06:27.851Z,94248.00
2022-10-22T10:09:27.162Z,94246.00
2022-10-22T10:12:29.146Z,94251.00
2022-10-22T10:16:01.807Z,94247.00
2022-10-22T10:20:02.900Z,94254.00
2022-10-22T10:22:51.776Z,94250.00
2022-10-22T10:26:09.737Z,94244.00
2022-10-22T10:29:45.806Z,94258.00
2022-10-22T10:32:58.447Z,94252.00
2022-10-22T10:35:58.610Z,94266.00
2022-10-22T10:39:27.111Z,94251.00
2022-10-22T10:42:15.769Z,94259.00
2022-10-22T10:45:20.670Z,94255.00
2022-10-22T10:48:22.857Z,94246.00
2022-10-22T10:51:22.350Z,94251.00
2022-10-22T10:54:08.116Z,94255.00
2022-10-22T10:56:46.830Z,94249.00
2022-10-22T10:59:41.949Z,94260.00
2022-10-22T11:02:52.077Z,94258.00
2022-10-22T11:05:43.757Z,94252.00
2022-10-22T11:08:19.102Z,94255.00
2022-10-22T11:10:50.819Z,94259.00
2022-10-22T11:13:47.970Z,94260.00
2022-10-22T11:16:37.570Z,94257.00
2022-10-22T11:19:50.649Z,94253.00
2022-10-22T11:23:00.320Z,94252.00
2022-10-22T11:25:39.666Z,94247.00
2022-10-22T11:31:02.383Z,94254.00
2022-10-22T11:33:43.940Z,94241.00
2022-10-22T11:36:12.391Z,94239.00
2022-10-22T11:38:41.972Z,94238.00
2022-10-22T11:41:19.009Z,94243.00
2022-10-22T11:43:59.574Z,94244.00
2022-10-22T11:46:38.434Z,94240.00
2022-10-22T11:49:16.201Z,94249.00
2022-10-22T11:51:45.020Z,94244.00
2022-10-22T11:54:42.637Z,94241.00
2022-10-22T11:57:26.559Z,94243.00
2022-10-22T12:00:00.496Z,94246.00
2022-10-22T12:02:40.337Z,94248.00
2022-10-22T12:05:26.866Z,94244.00
2022-10-22T12:08:00.038Z,94242.00
2022-10-22T12:10:35.069Z,94245.00
2022-10-22T12:13:13.917Z,94248.00
2022-10-22T12:15:54.955Z,94251.00
2022-10-22T12:18:36.683Z,94240.00
2022-10-22T12:21:06.801Z,94241.00
2022-10-22T12:23:36.118Z,94237.00
2022-10-22T12:26:05.703Z,94235.00
2022-10-22T12:28:41.746Z,94225.00
2022-10-22T12:31:16.587Z,94226.00
2022-10-22T12:33:46.471Z,94230.00
2022-10-22T12:36:19.908Z,94230.00
2022-10-22T12:38:49.905Z,94227.00
2022-10-22T12:41:19.450Z,94226.00
2022-10-22T12:43:46.307Z,94230.00
2022-10-22T12:46:16.303Z,94228.00
2022-10-22T12:48:45.678Z,94228.00
2022-10-22T12:52:13.318Z,94226.00
2022-10-22T12:59:18.716Z,94236.00
2022-10-22T13:02:01.172Z,94229.00
2022-10-22T13:04:39.418Z,94230.00
2022-10-22T13:07:18.443Z,94234.00
2022-10-22T13:10:03.736Z,94207.00
2022-10-22T13:12:56.413Z,94211.00
2022-10-22T13:15:46.134Z,94209.00
2022-10-22T13:18:27.563Z,94218.00
2022-10-22T13:21:16.365Z,94224.00
2022-10-22T13:24:09.637Z,94195.00
2022-10-22T13:26:58.180Z,94220.00
2022-10-22T13:29:31.076Z,94224.00
2022-10-22T13:32:01.182Z,94199.00
2022-10-22T13:34:36.324Z,94220.00
2022-10-22T13:37:05.455Z,94210.00
2022-10-22T13:39:33.506Z,94217.00
2022-10-22T13:42:02.634Z,94219.00
2022-10-22T13:44:34.988Z,94216.00
2022-10-22T13:47:03.974Z,94228.00
2022-10-22T13:49:30.822Z,94225.00
2022-10-22T13:52:01.045Z,94221.00
2022-10-22T13:54:27.865Z,94218.00
2022-10-22T13:56:54.721Z,94229.00
2022-10-22T13:59:24.221Z,94227.00
2022-10-22T14:01:54.797Z,94226.00
2022-10-22T14:04:41.810Z,94215.00
2022-10-22T14:07:24.786Z,94211.00
2022-10-22T14:10:01.020Z,94209.00
2022-10-22T14:12:28.502Z,94204.00
2022-10-22T14:17:30.357Z,94205.00
2022-10-22T14:20:17.410Z,94202.00
2022-10-22T14:22:50.120Z,94209.00
2022-10-22T14:39:09.216Z,94210.00
2022-10-22T14:41:49.766Z,94216.00
2022-10-22T14:44:25.513Z,94214.00
2022-10-22T14:47:00.361Z,94194.00
2022-10-22T14:49:44.242Z,94191.00
2022-10-22T14:52:14.921Z,94220.00
2022-10-22T14:54:45.446Z,94224.00
2022-10-22T15:13:06.555Z,94221.00
2022-10-22T15:19:34.796Z,94232.00
2022-10-22T15:22:24.751Z,94217.00
2022-10-22T15:25:06.587Z,94225.00
2022-10-22T15:27:35.971Z,94224.00
2022-10-22T15:30:05.373Z,94227.00
2022-10-22T15:32:51.272Z,94217.00
2022-10-22T15:47:56.924Z,94190.00
2022-10-22T15:50:29.834Z,94240.00
2022-10-22T15:53:17.109Z,94248.00
2022-10-22T15:55:49.725Z,94254.00
2022-10-22T15:58:46.110Z,94238.00
2022-10-22T16:14:26.386Z,94260.00
2022-10-22T16:26:21.074Z,94269.00
2022-10-22T16:29:04.387Z,94268.00
2022-10-22T16:31:33.834Z,94277.00
2022-10-22T16:34:04.045Z,94276.00
2022-10-22T16:36:37.373Z,94276.00
2022-10-22T16:39:07.251Z,94277.00
2022-10-22T16:41:37.633Z,94282.00
2022-10-22T16:44:08.105Z,94290.00
2022-10-22T16:46:42.364Z,94288.00
2022-10-22T16:49:30.492Z,94292.00
2022-10-22T16:52:00.201Z,94294.00
2022-10-22T16:54:29.630Z,94295.00
2022-10-22T16:56:59.176Z,94296.00
2022-10-22T16:59:32.307Z,94290.00
2022-10-22T17:02:01.802Z,94293.00
2022-10-22T17:04:29.820Z,94300.00
2022-10-22T17:06:59.636Z,94291.00
2022-10-22T17:09:35.735Z,94300.00
2022-10-22T17:12:42.963Z,94276.00
2022-10-22T17:18:51.726Z,94309.00
2022-10-22T17:21:23.119Z,94305.00
2022-10-22T17:23:54.181Z,94313.00
2022-10-22T17:26:27.726Z,94309.00
2022-10-22T17:28:55.295Z,94311.00
2022-10-22T17:31:38.042Z,94324.00
2022-10-22T17:34:08.170Z,94320.00
2022-10-22T17:36:36.727Z,94314.00
2022-10-22T17:39:07.309Z,94322.00
2022-10-22T17:41:36.954Z,94314.00
2022-10-22T17:44:09.144Z,94307.00
2022-10-22T17:46:36.525Z,94315.00
2022-10-22T17:49:13.379Z,94313.00
2022-10-22T17:51:43.288Z,94317.00
2022-10-22T17:54:10.409Z,94326.00
2022-10-22T17:56:40.115Z,94325.00
2022-10-22T17:59:09.054Z,94319.00
2022-10-22T18:01:40.201Z,94322.00
2022-10-22T18:04:09.467Z,94332.00
2022-10-22T18:06:39.335Z,94333.00
2022-10-22T18:09:17.311Z,94324.00
2022-10-22T18:11:46.572Z,94312.00
2022-10-22T18:14:13.572Z,94317.00
2022-10-22T18:16:42.580Z,94318.00
2022-10-22T18:20:04.969Z,94320.00
2022-10-22T18:22:32.617Z,94328.00
2022-10-22T18:31:00.827Z,94306.00
2022-10-22T18:33:40.836Z,94295.00
2022-10-22T18:45:16.470Z,94309.00
2022-10-22T18:51:59.914Z,94288.00
2022-10-22T18:54:47.090Z,94316.00
2022-10-22T18:57:15.198Z,94325.00
2022-10-22T19:00:00.332Z,94302.00
2022-10-22T19:03:08.798Z,94312.00
2022-10-22T19:06:32.291Z,94280.00
2022-10-22T19:09:27.088Z,94308.00
2022-10-22T19:16:51.400Z,94318.00
2022-10-22T19:19:31.450Z,94305.00
2022-10-22T19:22:04.650Z,94315.00
2022-10-22T19:24:34.608Z,94329.00
2022-10-22T19:27:10.307Z,94318.00
2022-10-22T19:29:37.542Z,94323.00
2022-10-22T19:35:25.672Z,94325.00
2022-10-22T19:37:53.768Z,94313.00
2022-10-22T19:40:29.811Z,94316.00
2022-10-22T19:45:41.392Z,94324.00
2022-10-22T19:48:09.649Z,94324.00
2022-10-22T19:50:41.882Z,94321.00
2022-10-22T19:56:43.803Z,94327.00
2022-10-22T19:59:27.440Z,94325.00
2022-10-22T20:02:07.044Z,94317.00
2022-10-22T20:04:39.621Z,94317.00
2022-10-22T20:07:10.299Z,94312.00
2022-10-22T20:09:37.392Z,94308.00
2022-10-22T20:15:22.649Z,94319.00
2022-10-22T20:20:48.659Z,94319.00
2022-10-22T20:23:32.629Z,94291.00
2022-10-22T20:26:19.457Z,94325.00
2022-10-22T20:28:53.140Z,94295.00
2022-10-22T20:31:24.063Z,94325.00
2022-10-22T20:36:54.902Z,94332.00
2022-10-22T20:39:23.146Z,94332.00
2022-10-22T20:41:57.254Z,94334.00
2022-10-22T20:47:51.215Z,94323.00
2022-10-22T20:53:33.635Z,94344.00
2022-10-22T20:56:03.844Z,94325.00
2022-10-22T20:58:47.781Z,94322.00
2022-10-22T21:01:31.065Z,94332.00
2022-10-22T21:04:58.973Z,94332.00
2022-10-22T21:07:49.065Z,94329.00
2022-10-22T21:10:16.479Z,94319.00
2022-10-22T21:13:35.251Z,94333.00
2022-10-22T21:16:14.994Z,94327.00
2022-10-22T21:18:45.751Z,94336.00
2022-10-22T21:21:13.851Z,94337.00
2022-10-22T21:23:40.800Z,94325.00
2022-10-22T21:28:46.682Z,94333.00
2022-10-22T21:31:26.257Z,94336.00
2022-10-22T21:33:56.525Z,94338.00
2022-10-22T21:36:26.399Z,94331.00
2022-10-22T21:38:53.916Z,94338.00
2022-10-22T21:41:36.393Z,94336.00
2022-10-22T21:44:21.210Z,94332.00
2022-10-22T21:47:42.804Z,94296.00
2022-10-22T21:50:12.318Z,94331.00
2022-10-22T21:52:45.285Z,94316.00
2022-10-22T21:55:16.092Z,94295.00
2022-10-22T21:57:45.183Z,94324.00
2022-10-22T22:00:37.242Z,94314.00
2022-10-22T22:03:10.291Z,94314.00
2022-10-22T22:06:03.726Z,94315.00
2022-10-22T22:08:34.152Z,94315.00
2022-10-22T22:11:58.723Z,94307.00
2022-10-22T22:14:28.810Z,94299.00
2022-10-22T22:16:55.629Z,94299.00
2022-10-22T22:19:30.648Z,94295.00
2022-10-22T22:21:58.714Z,94292.00
2022-10-22T22:24:25.975Z,94293.00
2022-10-22T22:26:54.947Z,94281.00
2022-10-22T22:29:21.837Z,94284.00
2022-10-22T22:34:44.029Z,94290.00
2022-10-22T22:37:11.020Z,94296.00
2022-10-22T22:40:05.503Z,94280.00
2022-10-22T22:42:42.568Z,94278.00
2022-10-22T22:45:12.226Z,94295.00
2022-10-22T22:47:56.428Z,94284.00
2022-10-22T22:50:36.925Z,94277.00
2022-10-22T22:53:04.410Z,94269.00
2022-10-22T22:55:36.804Z,94277.00
2022-10-22T22:58:03.844Z,94270.00
2022-10-22T23:00:45.994Z,94279.00
2022-10-22T23:03:14.899Z,94266.00
2022-10-22T23:05:42.522Z,94269.00
2022-10-22T23:08:19.575Z,94268.00
2022-10-22T23:10:50.599Z,94262.00
2022-10-22T23:13:28.587Z,94263.00
2022-10-22T23:16:36.567Z,94267.00
2022-10-22T23:19:26.170Z,94271.00
2022-10-22T23:22:02.254Z,94275.00
2022-10-22T23:24:31.157Z,94265.00
2022-10-22T23:27:03.527Z,94271.00
2022-10-22T23:29:38.742Z,94269.00
2022-10-22T23:32:18.316Z,94277.00
2022-10-22T23:34:45.203Z,94271.00
2022-10-22T23:37:12.552Z,94266.00
2022-10-22T23:39:40.705Z,94262.00
2022-10-22T23:42:12.029Z,94262.00
2022-10-22T23:44:44.380Z,94264.00
2022-10-22T23:47:12.829Z,94275.00
2022-10-22T23:49:40.042Z,94270.00
2022-10-22T23:52:12.989Z,94272.00
2022-10-22T23:54:43.856Z,94270.00
2022-10-22T23:57:13.223Z,94272.00
2022-10-22T23:59:42.477Z,94273.00
